sensor_id;sensor_type;location;lat;lon;timestamp;temperature;humidity
57719;DHT22;43561;50.090;18.522;2024-02-21T00:04:49;5.40;99.90
57719;DHT22;43561;50.090;18.522;2024-02-21T00:14:51;5.30;99.90
57719;DHT22;43561;50.090;18.522;2024-02-21T00:24:54;5.30;99.90
57719;DHT22;43561;50.090;18.522;2024-02-21T00:46:52;5.30;99.90
57719;DHT22;43561;50.090;18.522;2024-02-21T01:09:37;5.30;99.90
57719;DHT22;43561;50.090;18.522;2024-02-21T05:16:58;4.90;99.90
57719;DHT22;43561;50.090;18.522;2024-02-21T05:27:35;4.80;99.90
57719;DHT22;43561;50.090;18.522;2024-02-21T06:21:31;4.80;99.90
57719;DHT22;43561;50.090;18.522;2024-02-21T06:32:06;4.90;99.90
57719;DHT22;43561;50.090;18.522;2024-02-21T06:42:35;5.00;99.90
57719;DHT22;43561;50.090;18.522;2024-02-21T06:53:09;5.10;99.90
57719;DHT22;43561;50.090;18.522;2024-02-21T07:03:49;5.00;99.90
57719;DHT22;43561;50.090;18.522;2024-02-21T07:14:07;5.20;99.90
57719;DHT22;43561;50.090;18.522;2024-02-21T07:46:16;5.70;99.90
57719;DHT22;43561;50.090;18.522;2024-02-21T08:06:51;7.40;99.90
57719;DHT22;43561;50.090;18.522;2024-02-21T08:16:54;7.40;99.90
57719;DHT22;43561;50.090;18.522;2024-02-21T08:26:56;7.70;99.90
57719;DHT22;43561;50.090;18.522;2024-02-21T08:37:02;8.40;99.90
57719;DHT22;43561;50.090;18.522;2024-02-21T08:47:04;9.50;99.90
57719;DHT22;43561;50.090;18.522;2024-02-21T08:57:15;9.40;99.90
57719;DHT22;43561;50.090;18.522;2024-02-21T09:07:18;9.60;99.90
57719;DHT22;43561;50.090;18.522;2024-02-21T09:17:57;10.10;99.90
57719;DHT22;43561;50.090;18.522;2024-02-21T09:28:12;10.00;99.90
57719;DHT22;43561;50.090;18.522;2024-02-21T09:38:14;10.10;99.90
57719;DHT22;43561;50.090;18.522;2024-02-21T09:58:44;10.90;99.90
57719;DHT22;43561;50.090;18.522;2024-02-21T10:08:54;11.10;99.90
57719;DHT22;43561;50.090;18.522;2024-02-21T10:18:57;10.80;99.90
57719;DHT22;43561;50.090;18.522;2024-02-21T10:29:01;10.40;99.90
57719;DHT22;43561;50.090;18.522;2024-02-21T10:39:03;10.10;99.90
57719;DHT22;43561;50.090;18.522;2024-02-21T10:49:19;9.90;99.90
57719;DHT22;43561;50.090;18.522;2024-02-21T10:59:24;9.80;99.90
57719;DHT22;43561;50.090;18.522;2024-02-21T11:09:31;9.50;99.90
57719;DHT22;43561;50.090;18.522;2024-02-21T11:19:33;9.40;99.90
57719;DHT22;43561;50.090;18.522;2024-02-21T11:29:45;9.40;99.90
57719;DHT22;43561;50.090;18.522;2024-02-21T11:39:49;9.20;99.90
57719;DHT22;43561;50.090;18.522;2024-02-21T11:49:53;9.00;99.90
57719;DHT22;43561;50.090;18.522;2024-02-21T11:59:55;8.80;99.90
57719;DHT22;43561;50.090;18.522;2024-02-21T12:10:03;8.50;99.90
57719;DHT22;43561;50.090;18.522;2024-02-21T12:20:08;8.50;99.90
57719;DHT22;43561;50.090;18.522;2024-02-21T12:30:12;8.60;99.90
57719;DHT22;43561;50.090;18.522;2024-02-21T12:40:14;8.60;99.90
57719;DHT22;43561;50.090;18.522;2024-02-21T12:50:17;8.60;99.90
57719;DHT22;43561;50.090;18.522;2024-02-21T13:00:19;8.50;99.90
57719;DHT22;43561;50.090;18.522;2024-02-21T13:10:21;8.50;99.90
57719;DHT22;43561;50.090;18.522;2024-02-21T13:20:24;8.50;99.90
57719;DHT22;43561;50.090;18.522;2024-02-21T13:30:27;8.50;99.90
57719;DHT22;43561;50.090;18.522;2024-02-21T13:40:28;8.40;99.90
57719;DHT22;43561;50.090;18.522;2024-02-21T13:50:31;8.30;99.90
57719;DHT22;43561;50.090;18.522;2024-02-21T14:00:33;8.30;99.90
57719;DHT22;43561;50.090;18.522;2024-02-21T14:10:35;8.40;99.90
57719;DHT22;43561;50.090;18.522;2024-02-21T14:20:37;8.20;99.90
57719;DHT22;43561;50.090;18.522;2024-02-21T14:30:39;8.30;99.90
57719;DHT22;43561;50.090;18.522;2024-02-21T14:40:41;8.40;99.90
57719;DHT22;43561;50.090;18.522;2024-02-21T14:50:43;8.30;99.90
57719;DHT22;43561;50.090;18.522;2024-02-21T15:00:48;8.10;99.90
57719;DHT22;43561;50.090;18.522;2024-02-21T15:10:54;8.10;99.90
57719;DHT22;43561;50.090;18.522;2024-02-21T15:21:15;8.20;99.90
57719;DHT22;43561;50.090;18.522;2024-02-21T15:31:22;8.30;99.90
57719;DHT22;43561;50.090;18.522;2024-02-21T15:41:27;8.10;99.90
57719;DHT22;43561;50.090;18.522;2024-02-21T15:51:31;7.80;99.90
57719;DHT22;43561;50.090;18.522;2024-02-21T16:01:33;7.60;99.90
57719;DHT22;43561;50.090;18.522;2024-02-21T16:11:43;7.60;99.90
57719;DHT22;43561;50.090;18.522;2024-02-21T16:22:11;7.70;99.90
57719;DHT22;43561;50.090;18.522;2024-02-21T16:43:42;7.30;99.90
57719;DHT22;43561;50.090;18.522;2024-02-21T16:53:47;7.20;99.90
57719;DHT22;43561;50.090;18.522;2024-02-21T17:03:53;7.10;99.90
57719;DHT22;43561;50.090;18.522;2024-02-21T17:13:55;7.10;99.90
57719;DHT22;43561;50.090;18.522;2024-02-21T17:23:57;6.90;99.90
57719;DHT22;43561;50.090;18.522;2024-02-21T17:34:18;6.80;99.90
57719;DHT22;43561;50.090;18.522;2024-02-21T17:44:20;6.70;99.90
57719;DHT22;43561;50.090;18.522;2024-02-21T17:54:24;6.50;99.90
57719;DHT22;43561;50.090;18.522;2024-02-21T18:04:25;6.40;99.90
57719;DHT22;43561;50.090;18.522;2024-02-21T18:14:28;6.30;99.90
57719;DHT22;43561;50.090;18.522;2024-02-21T18:24:30;6.20;99.90
57719;DHT22;43561;50.090;18.522;2024-02-21T18:34:32;6.20;99.90
57719;DHT22;43561;50.090;18.522;2024-02-21T18:44:34;6.10;99.90
57719;DHT22;43561;50.090;18.522;2024-02-21T18:54:40;6.00;99.90
57719;DHT22;43561;50.090;18.522;2024-02-21T19:04:42;6.00;99.90
57719;DHT22;43561;50.090;18.522;2024-02-21T19:14:44;5.90;99.90
57719;DHT22;43561;50.090;18.522;2024-02-21T19:24:46;5.90;99.90
57719;DHT22;43561;50.090;18.522;2024-02-21T19:34:49;5.80;99.90
57719;DHT22;43561;50.090;18.522;2024-02-21T19:44:51;5.80;99.90
57719;DHT22;43561;50.090;18.522;2024-02-21T19:54:54;5.70;99.90
57719;DHT22;43561;50.090;18.522;2024-02-21T20:04:56;5.70;99.90
57719;DHT22;43561;50.090;18.522;2024-02-21T20:14:58;5.60;99.90
57719;DHT22;43561;50.090;18.522;2024-02-21T20:25:00;5.60;99.90
57719;DHT22;43561;50.090;18.522;2024-02-21T20:35:02;5.50;99.90
57719;DHT22;43561;50.090;18.522;2024-02-21T20:45:05;5.40;99.90
57719;DHT22;43561;50.090;18.522;2024-02-21T20:55:11;5.30;99.90
57719;DHT22;43561;50.090;18.522;2024-02-21T21:05:16;5.20;99.90
57719;DHT22;43561;50.090;18.522;2024-02-21T21:15:22;5.20;99.90
57719;DHT22;43561;50.090;18.522;2024-02-21T21:25:27;5.20;99.90
57719;DHT22;43561;50.090;18.522;2024-02-21T21:35:30;5.00;99.90
57719;DHT22;43561;50.090;18.522;2024-02-21T21:45:32;4.90;99.90
57719;DHT22;43561;50.090;18.522;2024-02-21T21:55:34;5.00;99.90
57719;DHT22;43561;50.090;18.522;2024-02-21T22:05:36;5.10;99.90
57719;DHT22;43561;50.090;18.522;2024-02-21T22:15:38;5.10;99.90
57719;DHT22;43561;50.090;18.522;2024-02-21T22:25:40;5.00;99.90
57719;DHT22;43561;50.090;18.522;2024-02-21T22:35:42;5.00;99.90
57719;DHT22;43561;50.090;18.522;2024-02-21T22:45:44;5.00;99.90
57719;DHT22;43561;50.090;18.522;2024-02-21T22:55:46;4.90;99.90
57719;DHT22;43561;50.090;18.522;2024-02-21T23:05:48;5.00;99.90
57719;DHT22;43561;50.090;18.522;2024-02-21T23:15:50;5.20;99.90
57719;DHT22;43561;50.090;18.522;2024-02-21T23:25:53;5.20;99.90
57719;DHT22;43561;50.090;18.522;2024-02-21T23:35:55;5.20;99.90
57719;DHT22;43561;50.090;18.522;2024-02-21T23:45:58;5.10;99.90
57719;DHT22;43561;50.090;18.522;2024-02-21T23:56:00;5.10;99.90
